createdAt,value
2018-06-25T00:00:12.091Z,13.50
2018-06-25T00:02:41.110Z,13.50
2018-06-25T00:05:10.186Z,13.50
2018-06-25T00:07:39.190Z,13.50
2018-06-25T00:10:08.243Z,13.40
2018-06-25T00:12:37.281Z,13.40
2018-06-25T00:15:06.528Z,13.30
2018-06-25T00:17:35.577Z,13.20
2018-06-25T00:20:04.679Z,13.10
2018-06-25T00:22:33.766Z,12.90
2018-06-25T00:25:02.792Z,12.80
2018-06-25T00:27:31.867Z,12.60
2018-06-25T00:30:01.034Z,12.50
2018-06-25T00:32:30.130Z,12.50
2018-06-25T00:34:59.244Z,12.40
2018-06-25T00:37:28.317Z,12.40
2018-06-25T00:39:57.430Z,12.30
2018-06-25T00:42:26.474Z,12.20
2018-06-25T00:44:55.517Z,12.20
2018-06-25T00:47:24.563Z,12.10
2018-06-25T00:49:53.611Z,12.10
2018-06-25T00:52:22.650Z,12.00
2018-06-25T00:54:51.700Z,12.00
2018-06-25T00:57:20.761Z,12.00
2018-06-25T00:59:53.430Z,11.90
2018-06-25T01:02:22.737Z,11.90
2018-06-25T01:04:51.811Z,11.90
2018-06-25T01:07:20.975Z,11.80
2018-06-25T01:09:50.190Z,11.80
2018-06-25T01:12:19.231Z,11.80
2018-06-25T01:14:48.250Z,11.80
2018-06-25T01:17:17.316Z,11.80
2018-06-25T01:19:46.348Z,11.70
2018-06-25T01:22:15.368Z,11.70
2018-06-25T01:24:44.384Z,11.60
2018-06-25T01:27:13.446Z,11.60
2018-06-25T01:29:42.878Z,11.60
2018-06-25T01:32:11.944Z,11.60
2018-06-25T01:34:40.992Z,11.60
2018-06-25T01:37:10.011Z,11.60
2018-06-25T01:39:39.054Z,11.60
2018-06-25T01:42:08.144Z,11.60
2018-06-25T01:44:37.177Z,11.50
2018-06-25T01:47:06.263Z,11.50
2018-06-25T01:49:35.291Z,11.50
2018-06-25T01:52:04.314Z,11.50
2018-06-25T01:54:33.339Z,11.40
2018-06-25T01:57:02.412Z,11.40
2018-06-25T01:59:31.435Z,11.40
2018-06-25T02:02:00.482Z,11.40
2018-06-25T02:04:29.523Z,11.40
2018-06-25T02:06:58.570Z,11.30
2018-06-25T02:09:27.563Z,11.20
2018-06-25T02:11:56.591Z,11.20
2018-06-25T02:16:54.211Z,11.20
2018-06-25T02:19:23.247Z,11.30
2018-06-25T02:21:52.385Z,11.20
2018-06-25T02:24:21.447Z,11.20
2018-06-25T02:29:19.008Z,11.30
2018-06-25T02:31:48.090Z,11.30
2018-06-25T02:34:17.117Z,11.30
2018-06-25T02:36:46.193Z,11.30
2018-06-25T02:39:15.212Z,11.30
2018-06-25T02:41:44.336Z,11.30
2018-06-25T02:44:13.418Z,11.30
2018-06-25T02:46:42.427Z,11.30
2018-06-25T02:49:11.634Z,11.40
2018-06-25T02:51:40.674Z,11.40
2018-06-25T02:54:09.724Z,11.40
2018-06-25T02:56:38.778Z,11.30
2018-06-25T02:59:07.896Z,11.30
2018-06-25T03:01:37.028Z,11.20
2018-06-25T03:04:06.063Z,11.20
2018-06-25T03:06:35.120Z,11.20
2018-06-25T03:09:05.918Z,11.20
2018-06-25T03:11:34.974Z,11.20
2018-06-25T03:14:04.214Z,11.20
2018-06-25T03:16:33.231Z,11.20
2018-06-25T03:19:02.289Z,11.20
2018-06-25T03:21:31.301Z,11.20
2018-06-25T03:24:00.370Z,11.20
2018-06-25T03:26:29.381Z,11.20
2018-06-25T03:28:58.446Z,11.10
2018-06-25T03:31:27.456Z,11.10
2018-06-25T03:33:56.510Z,11.10
2018-06-25T03:36:25.514Z,11.10
2018-06-25T03:38:54.551Z,11.10
2018-06-25T03:41:23.612Z,11.10
2018-06-25T03:43:52.615Z,11.10
2018-06-25T03:46:21.650Z,11.10
2018-06-25T03:48:50.653Z,11.10
2018-06-25T03:51:19.699Z,11.10
2018-06-25T03:53:48.692Z,11.10
2018-06-25T03:56:17.706Z,11.10
2018-06-25T03:58:46.711Z,11.10
2018-06-25T04:01:15.767Z,11.10
2018-06-25T04:03:44.764Z,11.10
2018-06-25T04:06:13.799Z,11.10
2018-06-25T04:08:43.085Z,11.10
2018-06-25T04:13:40.767Z,11.10
2018-06-25T04:16:09.900Z,11.10
2018-06-25T04:18:38.946Z,11.10
2018-06-25T04:21:07.994Z,11.00
2018-06-25T04:23:37.069Z,11.00
2018-06-25T04:26:06.216Z,11.00
2018-06-25T04:28:35.268Z,11.10
2018-06-25T04:31:04.285Z,11.10
2018-06-25T04:33:33.354Z,11.10
2018-06-25T04:36:02.398Z,11.10
2018-06-25T04:38:31.420Z,11.10
2018-06-25T04:41:00.479Z,11.10
2018-06-25T04:45:58.088Z,11.10
2018-06-25T04:48:27.074Z,11.00
2018-06-25T04:50:56.104Z,11.00
2018-06-25T04:53:25.130Z,11.00
2018-06-25T04:55:54.139Z,11.00
2018-06-25T04:58:23.179Z,11.00
2018-06-25T05:00:52.220Z,11.00
2018-06-25T05:03:21.251Z,11.00
2018-06-25T05:05:50.358Z,11.00
2018-06-25T05:08:19.372Z,11.00
2018-06-25T05:10:48.395Z,11.00
2018-06-25T05:13:17.434Z,11.10
2018-06-25T05:15:46.498Z,11.10
2018-06-25T05:18:15.621Z,11.10
2018-06-25T05:20:44.716Z,11.20
2018-06-25T05:23:13.794Z,11.10
2018-06-25T05:25:42.916Z,11.20
2018-06-25T05:28:11.940Z,11.20
2018-06-25T05:30:40.981Z,11.40
2018-06-25T05:33:10.028Z,11.40
2018-06-25T05:35:39.039Z,11.40
2018-06-25T05:38:08.113Z,11.40
2018-06-25T05:40:37.215Z,11.40
2018-06-25T05:43:06.331Z,11.50
2018-06-25T05:45:35.381Z,11.60
2018-06-25T05:48:04.376Z,11.70
2018-06-25T05:50:34.462Z,11.90
2018-06-25T05:53:03.552Z,11.90
2018-06-25T05:55:32.616Z,12.00
2018-06-25T05:58:01.687Z,12.10
2018-06-25T06:00:30.822Z,12.30
2018-06-25T06:02:59.892Z,12.30
2018-06-25T06:05:28.982Z,12.50
2018-06-25T06:07:58.038Z,12.70
2018-06-25T06:10:27.067Z,12.90
2018-06-25T06:12:56.126Z,13.00
2018-06-25T06:15:25.169Z,13.10
2018-06-25T06:17:54.271Z,13.10
2018-06-25T06:20:23.380Z,13.10
2018-06-25T06:22:52.460Z,12.90
2018-06-25T06:25:21.526Z,12.70
2018-06-25T06:27:50.630Z,12.70
2018-06-25T06:30:19.712Z,12.70
2018-06-25T06:32:48.787Z,12.80
2018-06-25T06:35:17.799Z,13.00
2018-06-25T06:37:46.919Z,13.10
2018-06-25T06:40:15.977Z,13.20
2018-06-25T06:42:45.209Z,13.10
2018-06-25T06:45:14.303Z,13.10
2018-06-25T06:47:43.345Z,13.10
2018-06-25T06:52:41.092Z,13.10
2018-06-25T06:55:10.150Z,13.10
2018-06-25T06:57:39.225Z,13.00
2018-06-25T07:00:08.427Z,13.00
2018-06-25T07:02:37.589Z,12.90
2018-06-25T07:05:06.817Z,12.90
2018-06-25T07:07:35.932Z,12.90
2018-06-25T07:10:05.176Z,12.90
2018-06-25T07:15:02.778Z,12.80
2018-06-25T07:17:31.888Z,12.70
2018-06-25T07:20:01.010Z,12.60
2018-06-25T07:22:30.076Z,12.60
2018-06-25T07:24:59.183Z,12.70
2018-06-25T07:27:28.288Z,12.80
2018-06-25T07:29:57.331Z,12.80
2018-06-25T07:32:26.472Z,12.90
2018-06-25T07:34:55.557Z,12.90
2018-06-25T07:37:24.634Z,12.90
2018-06-25T07:39:53.686Z,13.00
2018-06-25T07:42:22.913Z,13.10
2018-06-25T07:44:52.013Z,13.10
2018-06-25T07:47:21.204Z,13.10
2018-06-25T07:49:50.362Z,13.20
2018-06-25T07:52:19.402Z,13.20
2018-06-25T07:54:48.441Z,13.30
2018-06-25T07:57:17.512Z,13.30
2018-06-25T07:59:46.660Z,13.40
2018-06-25T08:02:15.690Z,13.40
2018-06-25T08:04:44.751Z,13.50
2018-06-25T08:07:13.856Z,13.60
2018-06-25T08:09:42.860Z,13.70
2018-06-25T08:12:11.972Z,13.80
2018-06-25T08:14:40.997Z,13.90
2018-06-25T08:17:10.060Z,14.00
2018-06-25T08:19:39.354Z,14.00
2018-06-25T08:22:08.517Z,14.10
2018-06-25T08:24:37.580Z,14.60
2018-06-25T08:27:06.618Z,15.00
2018-06-25T08:29:35.696Z,15.10
2018-06-25T08:32:04.771Z,14.90
2018-06-25T08:34:33.994Z,14.70
2018-06-25T08:37:04.636Z,14.70
2018-06-25T08:39:33.723Z,14.60
2018-06-25T08:42:02.773Z,14.60
2018-06-25T08:44:31.859Z,14.60
2018-06-25T08:47:01.066Z,14.60
2018-06-25T08:51:59.966Z,14.70
2018-06-25T08:54:29.092Z,14.70
2018-06-25T08:56:58.195Z,14.80
2018-06-25T08:59:27.386Z,14.80
2018-06-25T09:01:56.499Z,14.90
2018-06-25T09:04:25.780Z,15.10
2018-06-25T09:06:54.750Z,15.10
2018-06-25T09:09:24.201Z,15.10
2018-06-25T09:11:53.244Z,15.10
2018-06-25T09:14:22.263Z,15.10
2018-06-25T09:16:51.318Z,15.10
2018-06-25T09:19:20.331Z,15.00
2018-06-25T09:21:49.358Z,14.90
2018-06-25T09:24:18.439Z,14.80
2018-06-25T09:26:47.438Z,14.80
2018-06-25T09:29:16.551Z,14.80
2018-06-25T09:31:45.580Z,14.80
2018-06-25T09:34:19.937Z,14.80
2018-06-25T09:36:48.965Z,14.80
2018-06-25T09:39:17.986Z,14.90
2018-06-25T09:41:47.243Z,14.90
2018-06-25T09:44:16.070Z,14.90
2018-06-25T09:46:45.111Z,14.90
2018-06-25T09:49:14.155Z,15.00
2018-06-25T09:51:43.178Z,15.00
2018-06-25T09:54:12.240Z,15.00
2018-06-25T09:56:41.477Z,15.00
2018-06-25T09:59:10.594Z,15.10
2018-06-25T10:01:39.572Z,15.10
2018-06-25T10:04:08.610Z,15.10
2018-06-25T10:06:37.623Z,15.00
2018-06-25T10:09:09.902Z,15.00
2018-06-25T10:11:39.104Z,15.00
2018-06-25T10:14:08.210Z,15.00
2018-06-25T10:16:37.236Z,14.90
2018-06-25T10:19:06.284Z,14.80
2018-06-25T10:21:35.318Z,14.80
2018-06-25T10:24:04.375Z,14.70
2018-06-25T10:26:33.415Z,14.70
2018-06-25T10:29:02.413Z,14.70
2018-06-25T10:31:31.567Z,14.70
2018-06-25T10:34:00.570Z,14.70
2018-06-25T10:36:29.618Z,14.70
2018-06-25T10:38:58.670Z,14.80
2018-06-25T10:41:27.730Z,14.90
2018-06-25T10:43:56.767Z,15.00
2018-06-25T10:46:25.772Z,15.20
2018-06-25T10:48:55.183Z,15.30
2018-06-25T10:51:24.269Z,15.50
2018-06-25T10:53:53.341Z,15.70
2018-06-25T10:56:22.376Z,15.90
2018-06-25T10:58:51.581Z,16.10
2018-06-25T11:01:20.672Z,16.30
2018-06-25T11:03:49.765Z,16.30
2018-06-25T11:06:18.802Z,16.30
2018-06-25T11:08:47.880Z,16.50
2018-06-25T11:11:16.932Z,16.70
2018-06-25T11:13:46.020Z,16.80
2018-06-25T11:16:15.048Z,17.10
2018-06-25T11:18:44.093Z,17.30
2018-06-25T11:21:13.126Z,17.60
2018-06-25T11:23:42.150Z,17.80
2018-06-25T11:26:11.231Z,17.60
2018-06-25T11:28:40.244Z,17.50
2018-06-25T11:31:09.300Z,17.30
2018-06-25T11:33:38.280Z,17.30
2018-06-25T11:36:07.334Z,17.30
2018-06-25T11:38:36.360Z,17.30
2018-06-25T11:41:05.408Z,17.30
2018-06-25T11:43:34.465Z,17.40
2018-06-25T11:46:03.491Z,17.20
2018-06-25T11:48:32.589Z,17.10
2018-06-25T11:51:01.585Z,17.00
2018-06-25T11:53:30.600Z,17.00
2018-06-25T11:55:59.618Z,17.00
2018-06-25T11:58:28.655Z,17.10
2018-06-25T12:03:26.280Z,17.40
2018-06-25T12:05:55.328Z,17.50
2018-06-25T12:08:24.366Z,17.60
2018-06-25T12:10:53.384Z,17.70
2018-06-25T12:13:22.423Z,17.70
2018-06-25T12:15:51.478Z,17.60
2018-06-25T12:18:20.497Z,17.40
2018-06-25T12:20:49.543Z,17.30
2018-06-25T12:23:18.553Z,17.20
2018-06-25T12:25:47.580Z,17.20
2018-06-25T12:28:16.575Z,17.10
2018-06-25T12:30:45.646Z,17.00
2018-06-25T12:33:14.658Z,17.00
2018-06-25T12:35:43.715Z,16.90
2018-06-25T12:38:12.732Z,16.80
2018-06-25T12:43:10.524Z,16.60
2018-06-25T12:45:39.554Z,16.50
2018-06-25T12:48:08.693Z,16.40
2018-06-25T12:50:37.762Z,16.40
2018-06-25T12:53:06.877Z,16.40
2018-06-25T12:55:35.938Z,16.40
2018-06-25T12:58:05.031Z,16.50
2018-06-25T13:00:34.043Z,16.50
2018-06-25T13:03:03.100Z,16.70
2018-06-25T13:05:32.256Z,16.80
2018-06-25T13:08:01.398Z,16.90
2018-06-25T13:10:30.490Z,17.00
2018-06-25T13:12:59.572Z,17.10
2018-06-25T13:15:28.555Z,17.20
2018-06-25T13:17:57.628Z,17.20
2018-06-25T13:20:26.631Z,17.20
2018-06-25T13:22:55.699Z,17.30
2018-06-25T13:25:24.763Z,17.40
2018-06-25T13:27:53.804Z,17.50
2018-06-25T13:30:22.954Z,17.70
2018-06-25T13:32:52.025Z,17.80
2018-06-25T13:35:21.231Z,18.00
2018-06-25T13:37:50.265Z,18.00
2018-06-25T13:40:19.745Z,18.10
2018-06-25T13:42:48.796Z,18.00
2018-06-25T13:45:17.835Z,18.00
2018-06-25T13:47:46.849Z,18.10
2018-06-25T13:50:15.900Z,18.10
2018-06-25T13:52:44.925Z,18.30
2018-06-25T13:55:13.959Z,18.50
2018-06-25T13:57:42.994Z,18.70
2018-06-25T14:00:12.123Z,18.80
2018-06-25T14:02:41.135Z,18.80
2018-06-25T14:05:10.165Z,18.60
2018-06-25T14:07:39.221Z,18.50
2018-06-25T14:10:09.143Z,18.40
2018-06-25T14:12:38.290Z,18.30
2018-06-25T14:15:07.826Z,18.20
2018-06-25T14:17:36.892Z,18.10
2018-06-25T14:20:06.000Z,17.90
2018-06-25T14:22:35.152Z,17.90
2018-06-25T14:25:04.586Z,17.80
2018-06-25T14:30:13.764Z,17.80
2018-06-25T14:32:42.908Z,17.80
2018-06-25T14:35:14.957Z,17.90
2018-06-25T14:37:44.591Z,17.90
2018-06-25T14:40:13.657Z,17.90
2018-06-25T14:42:42.739Z,17.90
2018-06-25T14:45:11.787Z,17.90
2018-06-25T14:47:41.052Z,17.90
2018-06-25T14:50:10.206Z,17.90
2018-06-25T14:52:39.331Z,17.90
2018-06-25T14:55:08.400Z,17.90
2018-06-25T14:57:37.443Z,17.90
2018-06-25T15:00:06.611Z,17.90
2018-06-25T15:02:35.928Z,17.90
2018-06-25T15:05:05.116Z,17.90
2018-06-25T15:07:34.144Z,18.00
2018-06-25T15:10:03.225Z,18.00
2018-06-25T15:12:32.303Z,18.10
2018-06-25T15:15:01.316Z,18.10
2018-06-25T15:17:30.409Z,18.20
2018-06-25T15:19:59.446Z,18.30
2018-06-25T15:22:28.478Z,18.20
2018-06-25T15:24:57.475Z,18.30
2018-06-25T15:27:26.583Z,18.30
2018-06-25T15:29:55.621Z,18.20
2018-06-25T15:32:27.995Z,18.10
2018-06-25T15:34:57.050Z,18.10
2018-06-25T15:37:35.633Z,18.10
2018-06-25T15:40:04.747Z,18.10
2018-06-25T15:42:33.760Z,18.20
2018-06-25T15:45:02.946Z,18.30
2018-06-25T15:47:38.257Z,18.30
2018-06-25T15:50:07.279Z,18.40
2018-06-25T15:52:36.778Z,18.50
2018-06-25T15:55:05.879Z,18.50
2018-06-25T15:57:34.967Z,18.50
2018-06-25T16:00:04.271Z,18.50
2018-06-25T16:02:33.260Z,18.40
2018-06-25T16:05:02.392Z,18.40
2018-06-25T16:07:31.475Z,18.50
2018-06-25T16:10:00.532Z,18.50
2018-06-25T16:12:29.616Z,18.50
2018-06-25T16:14:58.682Z,18.50
2018-06-25T16:17:27.707Z,18.50
2018-06-25T16:19:56.756Z,18.40
2018-06-25T16:22:25.859Z,18.30
2018-06-25T16:24:54.902Z,18.10
2018-06-25T16:27:23.894Z,18.30
2018-06-25T16:29:52.943Z,18.40
2018-06-25T16:32:22.175Z,18.40
2018-06-25T16:34:51.181Z,18.30
2018-06-25T16:37:21.047Z,18.30
2018-06-25T16:39:50.145Z,18.30
2018-06-25T16:42:19.282Z,18.20
2018-06-25T16:44:48.513Z,18.20
2018-06-25T16:47:18.251Z,18.20
2018-06-25T16:49:47.865Z,18.20
2018-06-25T16:52:18.019Z,18.20
2018-06-25T16:54:47.695Z,18.20
2018-06-25T16:57:17.229Z,18.20
2018-06-25T16:59:46.685Z,18.10
2018-06-25T17:02:16.139Z,18.10
2018-06-25T17:04:45.664Z,18.00
2018-06-25T17:07:15.308Z,18.10
2018-06-25T17:12:13.591Z,18.00
2018-06-25T17:14:43.049Z,18.00
2018-06-25T17:17:12.446Z,17.90
2018-06-25T17:19:41.912Z,17.90
2018-06-25T17:22:11.330Z,17.90
2018-06-25T17:24:40.757Z,17.90
2018-06-25T17:27:10.189Z,17.90
2018-06-25T17:29:39.688Z,17.80
2018-06-25T17:32:09.153Z,17.80
2018-06-25T17:34:38.399Z,17.70
2018-06-25T17:37:07.908Z,17.70
2018-06-25T17:39:37.370Z,17.60
2018-06-25T17:42:06.751Z,17.60
2018-06-25T17:44:36.063Z,17.60
2018-06-25T17:47:05.649Z,17.50
2018-06-25T17:49:35.150Z,17.40
2018-06-25T17:52:04.607Z,17.40
2018-06-25T17:54:33.969Z,17.40
2018-06-25T17:57:03.449Z,17.30
2018-06-25T17:59:32.992Z,17.30
2018-06-25T18:02:02.310Z,17.30
2018-06-25T18:04:32.533Z,17.20
2018-06-25T18:07:01.939Z,17.10
2018-06-25T18:09:31.523Z,17.00
2018-06-25T18:12:01.049Z,17.00
2018-06-25T18:14:30.596Z,17.00
2018-06-25T18:16:59.919Z,17.00
2018-06-25T18:19:29.227Z,17.10
2018-06-25T18:21:58.740Z,17.20
2018-06-25T18:24:28.142Z,17.20
2018-06-25T18:26:57.541Z,17.20
2018-06-25T18:29:27.042Z,17.10
2018-06-25T18:31:56.474Z,17.10
2018-06-25T18:34:25.942Z,17.10
2018-06-25T18:36:55.303Z,17.10
2018-06-25T18:39:24.747Z,17.10
2018-06-25T18:41:54.106Z,17.00
2018-06-25T18:44:24.993Z,16.90
2018-06-25T18:46:54.915Z,16.90
2018-06-25T18:49:24.341Z,16.80
2018-06-25T18:51:55.071Z,16.70
2018-06-25T18:54:24.564Z,16.60
2018-06-25T18:56:54.105Z,16.50
2018-06-25T18:59:23.298Z,16.40
2018-06-25T19:01:53.130Z,16.30
2018-06-25T19:04:23.043Z,16.20
2018-06-25T19:06:52.544Z,16.10
2018-06-25T19:09:22.559Z,16.00
2018-06-25T19:11:52.056Z,16.00
2018-06-25T19:14:21.920Z,15.80
2018-06-25T19:16:51.646Z,15.70
2018-06-25T19:19:21.784Z,15.60
2018-06-25T19:21:52.097Z,15.40
2018-06-25T19:24:22.027Z,15.30
2018-06-25T19:26:51.848Z,15.20
2018-06-25T19:29:22.847Z,15.10
2018-06-25T19:31:52.729Z,15.00
2018-06-25T19:34:22.258Z,14.90
2018-06-25T19:36:51.688Z,14.80
2018-06-25T19:39:21.503Z,14.70
2018-06-25T19:41:50.927Z,14.60
2018-06-25T19:44:20.805Z,14.50
2018-06-25T19:46:51.807Z,14.40
2018-06-25T19:49:21.679Z,14.30
2018-06-25T19:51:52.459Z,14.20
2018-06-25T19:54:28.272Z,14.20
2018-06-25T19:56:58.273Z,14.10
2018-06-25T19:59:28.320Z,14.10
2018-06-25T20:01:58.312Z,14.00
2018-06-25T20:04:28.207Z,14.00
2018-06-25T20:06:57.404Z,13.90
2018-06-25T20:09:26.739Z,13.90
2018-06-25T20:11:56.836Z,13.90
2018-06-25T20:16:55.434Z,13.80
2018-06-25T20:19:25.483Z,13.80
2018-06-25T20:21:55.867Z,13.80
2018-06-25T20:26:54.985Z,13.80
2018-06-25T20:29:25.121Z,13.80
2018-06-25T20:31:54.740Z,13.70
2018-06-25T20:34:24.442Z,13.70
2018-06-25T20:36:54.713Z,13.70
2018-06-25T20:39:24.280Z,13.70
2018-06-25T20:41:54.687Z,13.70
2018-06-25T20:44:24.290Z,13.70
2018-06-25T20:46:54.217Z,13.70
2018-06-25T20:49:23.735Z,13.70
2018-06-25T20:51:53.303Z,13.70
2018-06-25T20:54:22.818Z,13.70
2018-06-25T20:56:52.616Z,13.70
2018-06-25T20:59:22.016Z,13.70
2018-06-25T21:01:51.765Z,13.70
2018-06-25T21:04:21.616Z,13.70
2018-06-25T21:06:51.283Z,13.70
2018-06-25T21:09:21.925Z,13.60
2018-06-25T21:11:51.497Z,13.60
2018-06-25T21:14:21.099Z,13.60
2018-06-25T21:16:50.681Z,13.50
2018-06-25T21:19:20.305Z,13.50
2018-06-25T21:21:49.906Z,13.50
2018-06-25T21:24:19.502Z,13.50
2018-06-25T21:26:49.133Z,13.50
2018-06-25T21:29:18.589Z,13.40
2018-06-25T21:31:48.111Z,13.40
2018-06-25T21:34:18.005Z,13.40
2018-06-25T21:36:47.462Z,13.40
2018-06-25T21:39:17.093Z,13.40
2018-06-25T21:41:46.960Z,13.40
2018-06-25T21:44:16.040Z,13.40
2018-06-25T21:46:45.049Z,13.30
2018-06-25T21:49:14.112Z,13.30
2018-06-25T21:51:43.117Z,13.30
2018-06-25T21:56:40.949Z,13.30
2018-06-25T21:59:10.035Z,13.20
2018-06-25T22:01:39.195Z,13.20
2018-06-25T22:04:08.232Z,13.10
2018-06-25T22:06:37.252Z,13.10
2018-06-25T22:09:09.168Z,13.10
2018-06-25T22:11:38.267Z,13.20
2018-06-25T22:14:07.423Z,13.20
2018-06-25T22:16:36.491Z,13.20
2018-06-25T22:19:05.535Z,13.20
2018-06-25T22:21:34.692Z,13.20
2018-06-25T22:24:03.783Z,13.20
2018-06-25T22:26:32.876Z,13.20
2018-06-25T22:29:01.875Z,13.20
2018-06-25T22:31:30.972Z,13.20
2018-06-25T22:36:28.631Z,13.20
2018-06-25T22:38:57.687Z,13.20
2018-06-25T22:41:26.801Z,13.10
2018-06-25T22:44:11.043Z,13.10
2018-06-25T22:46:41.285Z,13.10
2018-06-25T22:49:10.764Z,13.10
2018-06-25T22:51:39.882Z,13.10
2018-06-25T22:54:09.323Z,13.10
2018-06-25T22:56:38.383Z,13.10
2018-06-25T22:59:07.415Z,13.10
2018-06-25T23:01:36.415Z,13.00
2018-06-25T23:04:05.575Z,13.00
2018-06-25T23:06:34.667Z,13.00
2018-06-25T23:09:04.775Z,13.00
2018-06-25T23:11:33.795Z,13.10
2018-06-25T23:14:02.871Z,13.10
2018-06-25T23:16:31.940Z,13.00
2018-06-25T23:19:01.054Z,13.00
2018-06-25T23:21:30.148Z,12.90
2018-06-25T23:23:59.183Z,12.90
2018-06-25T23:26:28.322Z,12.80
2018-06-25T23:28:57.375Z,12.80
2018-06-25T23:31:26.421Z,12.80
2018-06-25T23:33:55.432Z,12.70
2018-06-25T23:36:24.471Z,12.60
2018-06-25T23:38:53.487Z,12.50
2018-06-25T23:41:22.523Z,12.50
2018-06-25T23:43:51.554Z,12.40
2018-06-25T23:46:20.582Z,12.40
2018-06-25T23:48:49.631Z,12.40
2018-06-25T23:51:18.647Z,12.30
2018-06-25T23:53:47.671Z,12.30
2018-06-25T23:56:16.672Z,12.20
2018-06-25T23:58:47.771Z,12.20
